Time;durP1;ratioP1;P1;durP2;ratioP2;P2;SDS_P1;SDS_P2;PMS_P1;PMS_P2;Temp;Humidity;BMP_temperature;BMP_pressure;BME280_temperature;BME280_humidity;BME280_pressure;Samples;Min_cycle;Max_cycle;Signal;HPM_P1;HPM_P2
2023/05/15 00:01:24;;;;;;;0.30;0.30;;;;;;;13.93;54.04;100618.44;5128527;28;20020;-61
2023/05/15 00:03:50;;;;;;;0.30;0.30;;;;;;;14.04;53.60;100608.63;5128654;28;20084;-63
2023/05/15 00:06:16;;;;;;;0.32;0.32;;;;;;;14.17;53.13;100595.34;5147199;22;20086;-66
2023/05/15 00:08:41;;;;;;;1.98;1.27;;;;;;;13.94;53.82;100610.59;5130652;22;20035;-63
2023/05/15 00:11:07;;;;;;;0.65;0.65;;;;;;;13.91;53.93;100615.88;5129027;22;20055;-74
2023/05/15 00:13:32;;;;;;;0.30;0.30;;;;;;;13.90;53.83;100610.66;5128315;22;20055;-63
2023/05/15 00:15:58;;;;;;;0.30;0.30;;;;;;;13.74;54.11;100601.38;5106881;28;20016;-62
2023/05/15 00:18:23;;;;;;;0.55;0.55;;;;;;;13.81;54.07;100601.25;5132264;22;20460;-73
2023/05/15 00:20:49;;;;;;;0.30;0.30;;;;;;;13.98;53.78;100588.75;5128187;28;20077;-74
2023/05/15 00:23:14;;;;;;;0.35;0.35;;;;;;;13.70;54.15;100589.28;5128486;28;20030;-73
2023/05/15 00:25:40;;;;;;;0.30;0.30;;;;;;;13.69;54.35;100587.53;5109925;28;20110;-74
2023/05/15 00:28:05;;;;;;;0.30;0.30;;;;;;;13.73;54.21;100598.78;5128043;28;20023;-74
2023/05/15 00:30:30;;;;;;;0.30;0.30;;;;;;;13.63;54.58;100588.53;5128000;28;20031;-75
2023/05/15 00:32:56;;;;;;;0.75;0.75;;;;;;;13.44;54.67;100561.00;5106466;22;20080;-63
2023/05/15 00:35:22;;;;;;;0.30;0.30;;;;;;;13.59;54.52;100581.66;5087287;28;20088;-63
2023/05/15 00:37:47;;;;;;;0.32;0.32;;;;;;;13.55;54.65;100579.09;5087143;28;20023;-62
2023/05/15 00:40:20;;;;;;;0.50;0.50;;;;;;;13.45;54.99;100578.41;5087274;28;20024;-62
2023/05/15 00:42:46;;;;;;;0.30;0.30;;;;;;;13.48;54.89;100576.56;5069571;28;20166;-63
2023/05/15 00:45:12;;;;;;;0.30;0.30;;;;;;;13.49;54.65;100580.94;5086839;28;20027;-62
2023/05/15 00:47:40;;;;;;;0.30;0.30;;;;;;;13.54;54.57;100582.63;5087290;28;20029;-61
2023/05/15 00:50:08;;;;;;;0.30;0.30;;;;;;;13.57;54.34;100572.13;5100699;22;20115;-72
2023/05/15 00:52:34;;;;;;;0.30;0.30;;;;;;;13.50;54.45;100577.44;5112700;22;20039;-63
2023/05/15 00:55:00;;;;;;;0.30;0.30;;;;;;;13.56;54.19;100568.63;5106825;28;20020;-62
2023/05/15 00:57:26;;;;;;;0.30;0.30;;;;;;;13.50;54.22;100577.44;5106970;28;20024;-63
2023/05/15 00:59:53;;;;;;;0.30;0.30;;;;;;;13.49;54.51;100574.84;5088899;28;20028;-62
2023/05/15 01:02:18;;;;;;;0.45;0.45;;;;;;;13.41;54.65;100566.28;5123861;22;20052;-62
2023/05/15 01:04:44;;;;;;;0.50;0.50;;;;;;;13.41;54.61;100571.50;5111304;22;20062;-67
2023/05/15 01:10:15;;;;;;;0.30;0.30;;;;;;;13.24;55.24;100567.47;5024991;28;20053;-74
2023/05/15 01:12:44;;;;;;;0.40;0.40;;;;;;;13.08;55.29;100553.81;5026902;28;20034;-73
2023/05/15 01:15:10;;;;;;;0.30;0.30;;;;;;;13.08;55.35;100548.59;5121781;22;20066;-62
2023/05/15 01:17:35;;;;;;;0.30;0.30;;;;;;;12.98;55.60;100547.88;5127777;22;20408;-73
2023/05/15 01:20:05;;;;;;;0.30;0.30;;;;;;;12.85;55.88;100540.28;5129528;23;20048;-63
2023/05/15 01:22:43;;;;;;;0.30;0.30;;;;;;;12.81;55.95;100541.19;5127145;28;20053;-63
2023/05/15 01:25:42;;;;;;;4.60;4.25;;;;;;;12.79;56.03;100550.78;5127150;22;20048;-74
2023/05/15 01:28:21;;;;;;;1.55;1.45;;;;;;;12.71;56.24;100547.44;5106937;28;20058;-73
2023/05/15 01:30:47;;;;;;;0.30;0.30;;;;;;;12.61;56.27;100539.75;5112463;22;20074;-64
2023/05/15 01:33:28;;;;;;;0.30;0.30;;;;;;;12.61;56.63;100542.38;5106316;28;20076;-63
2023/05/15 01:36:06;;;;;;;0.30;0.30;;;;;;;12.66;56.64;100544.91;5106021;28;20111;-63
2023/05/15 01:38:43;;;;;;;0.30;0.30;;;;;;;12.50;56.97;100544.25;5088217;22;20049;-62
2023/05/15 01:41:20;;;;;;;0.32;0.32;;;;;;;12.49;57.33;100545.16;5044446;28;20034;-62
2023/05/15 01:43:50;;;;;;;0.30;0.30;;;;;;;12.44;57.21;100544.34;5051919;23;20485;-72
2023/05/15 01:46:20;;;;;;;0.30;0.30;;;;;;;12.43;57.45;100534.81;5061032;22;20049;-62
2023/05/15 01:48:48;;;;;;;0.30;0.30;;;;;;;12.45;57.52;100539.13;5122792;23;20060;-72
2023/05/15 01:53:39;;;;;;;0.30;0.30;;;;;;;12.41;57.76;100537.47;5132586;22;20058;-63
2023/05/15 01:56:07;;;;;;;0.30;0.30;;;;;;;12.43;57.77;100535.66;5126046;28;20016;-62
2023/05/15 01:58:33;;;;;;;0.40;0.40;;;;;;;12.41;57.65;100518.34;5112711;22;20052;-73
2023/05/15 02:01:00;;;;;;;1.00;1.00;;;;;;;12.52;57.81;100535.53;5125794;28;20030;-72
2023/05/15 02:03:25;;;;;;;0.30;0.30;;;;;;;12.26;58.18;100541.13;5130680;22;20055;-64
2023/05/15 02:05:52;;;;;;;0.30;0.30;;;;;;;12.14;58.48;100527.38;5126177;28;20011;-62
2023/05/15 02:08:20;;;;;;;0.50;0.50;;;;;;;12.24;58.44;100528.13;5144898;22;20050;-63
2023/05/15 02:10:48;;;;;;;0.50;0.50;;;;;;;12.14;58.61;100522.16;5125637;28;20029;-63
2023/05/15 02:13:15;;;;;;;0.30;0.30;;;;;;;12.11;58.70;100522.22;5126047;28;20015;-62
2023/05/15 02:15:41;;;;;;;0.38;0.38;;;;;;;12.05;58.91;100522.25;5125663;28;20058;-62
2023/05/15 02:18:06;;;;;;;0.30;0.30;;;;;;;12.17;58.76;100525.63;5125881;28;20028;-62
2023/05/15 02:20:31;;;;;;;0.30;0.30;;;;;;;12.11;58.79;100524.81;5125910;28;20020;-62
2023/05/15 02:22:57;;;;;;;0.65;0.65;;;;;;;12.02;59.15;100519.69;5125869;28;20023;-63
2023/05/15 02:25:33;;;;;;;1.00;1.00;;;;;;;11.87;59.12;100500.78;5125830;28;20016;-62
2023/05/15 02:28:00;;;;;;;0.40;0.40;;;;;;;11.95;58.99;100505.06;5125682;28;20019;-62
2023/05/15 02:30:45;;;;;;;0.30;0.30;;;;;;;12.02;59.13;100506.69;5138883;22;20086;-62
2023/05/15 02:33:13;;;;;;;0.30;0.30;;;;;;;12.00;58.98;100518.84;5125031;28;20595;-61
2023/05/15 02:35:47;;;;;;;0.30;0.30;;;;;;;11.99;58.95;100509.34;5130637;22;20058;-65
2023/05/15 02:38:16;;;;;;;1.10;1.10;;;;;;;11.92;59.05;100505.94;5125411;28;20135;-65
2023/05/15 02:40:44;;;;;;;0.30;0.30;;;;;;;12.10;58.81;100520.50;5130346;22;20066;-63
2023/05/15 02:43:10;;;;;;;0.50;0.50;;;;;;;12.08;59.05;100513.56;5125903;28;20027;-62
2023/05/15 02:45:35;;;;;;;0.30;0.30;;;;;;;12.05;58.88;100513.59;5138563;22;20042;-64
2023/05/15 02:48:02;;;;;;;0.63;0.63;;;;;;;12.05;58.98;100509.25;5125843;28;20019;-62
2023/05/15 02:50:28;;;;;;;0.40;0.40;;;;;;;12.00;58.97;100503.25;5125749;28;20024;-63
2023/05/15 02:53:04;;;;;;;0.30;0.30;;;;;;;11.99;59.04;100515.41;5125434;28;20327;-61
2023/05/15 02:55:30;;;;;;;0.60;0.60;;;;;;;11.95;59.14;100512.88;5125653;28;20016;-63
2023/05/15 02:57:56;;;;;;;0.30;0.30;;;;;;;11.76;59.26;100503.53;5125720;28;20055;-63
2023/05/15 03:00:22;;;;;;;0.30;0.30;;;;;;;11.78;59.31;100511.31;5125483;28;20070;-63
2023/05/15 03:02:47;;;;;;;0.30;0.30;;;;;;;11.72;59.63;100507.06;5080695;22;20053;-74
2023/05/15 03:05:13;;;;;;;0.30;0.30;;;;;;;11.77;59.94;100501.81;5084821;28;20099;-73
2023/05/15 03:07:40;;;;;;;0.30;0.30;;;;;;;11.65;59.79;100495.84;5084867;28;20031;-73
2023/05/15 03:10:06;;;;;;;0.60;0.60;;;;;;;11.69;59.87;100501.03;5083445;28;20032;-75
2023/05/15 03:12:31;;;;;;;0.40;0.40;;;;;;;11.77;59.92;100494.00;5084898;28;20111;-75
2023/05/15 03:14:57;;;;;;;0.30;0.30;;;;;;;11.84;60.01;100498.22;5084801;28;20019;-72
2023/05/15 03:17:22;;;;;;;0.32;0.32;;;;;;;11.91;59.83;100493.81;5084847;28;20028;-73
2023/05/15 03:19:48;;;;;;;0.30;0.30;;;;;;;11.83;60.02;100485.25;5084685;28;20032;-74
2023/05/15 03:22:13;;;;;;;0.40;0.40;;;;;;;12.04;59.52;100489.31;5084694;28;20027;-75
2023/05/15 03:24:39;;;;;;;0.40;0.40;;;;;;;12.29;59.00;100480.31;5084602;28;20392;-73
2023/05/15 03:27:04;;;;;;;0.30;0.30;;;;;;;12.24;58.91;100486.47;5097174;22;20059;-62
2023/05/15 03:29:30;;;;;;;0.95;0.93;;;;;;;12.31;58.91;100489.84;5105155;28;20450;-62
2023/05/15 03:31:55;;;;;;;0.40;0.40;;;;;;;12.25;59.14;100484.75;5120623;22;20040;-61
2023/05/15 03:34:20;;;;;;;0.60;0.60;;;;;;;12.36;59.01;100481.97;5106899;28;20031;-62
2023/05/15 03:36:46;;;;;;;0.30;0.30;;;;;;;12.54;58.24;100475.63;5120935;22;20514;-62
2023/05/15 03:39:12;;;;;;;0.30;0.30;;;;;;;12.52;58.26;100473.03;5130789;22;20130;-74
2023/05/15 03:41:37;;;;;;;0.45;0.45;;;;;;;12.74;57.87;100477.06;5125153;28;20031;-74
2023/05/15 03:44:03;;;;;;;0.30;0.30;;;;;;;12.78;57.49;100457.88;5106048;28;20027;-73
2023/05/15 03:46:28;;;;;;;0.30;0.30;;;;;;;13.07;56.93;100474.75;5124446;28;20028;-73
2023/05/15 03:48:54;;;;;;;0.30;0.30;;;;;;;13.24;56.37;100471.00;5130478;22;20074;-63
2023/05/15 03:51:21;;;;;;;0.30;0.30;;;;;;;13.19;56.50;100465.88;5132550;22;20058;-70
2023/05/15 03:53:46;;;;;;;0.30;0.30;;;;;;;13.34;56.42;100469.91;5109781;28;20039;-72
2023/05/15 03:56:12;;;;;;;0.30;0.30;;;;;;;13.62;55.36;100458.13;5128580;28;20472;-73
2023/05/15 03:58:37;;;;;;;0.30;0.30;;;;;;;13.74;54.99;100463.09;5125352;22;20055;-62
2023/05/15 04:01:02;;;;;;;0.38;0.38;;;;;;;13.72;55.38;100453.59;5087452;28;20020;-62
2023/05/15 04:03:28;;;;;;;0.30;0.30;;;;;;;13.90;55.27;100449.72;5087916;28;20020;-63
2023/05/15 04:05:53;;;;;;;0.25;0.25;;;;;;;14.19;54.87;100452.56;5148850;22;20074;-62
2023/05/15 04:08:18;;;;;;;0.65;0.55;;;;;;;14.42;54.82;100449.44;5115643;22;20048;-68
2023/05/15 04:10:44;;;;;;;0.50;0.50;;;;;;;14.75;53.65;100459.09;5128375;28;20024;-68
2023/05/15 04:13:09;;;;;;;0.30;0.30;;;;;;;14.88;53.19;100441.38;5133223;22;20077;-63
2023/05/15 04:15:35;;;;;;;0.52;0.52;;;;;;;15.15;52.32;100465.06;5121257;22;20063;-71
2023/05/15 04:18:01;;;;;;;0.30;0.30;;;;;;;15.36;51.34;100454.94;5108174;28;20032;-71
2023/05/15 04:20:26;;;;;;;0.30;0.30;;;;;;;15.56;50.68;100456.97;5079762;23;20088;-63
2023/05/15 04:22:52;;;;;;;0.30;0.30;;;;;;;15.73;50.22;100461.72;5049523;28;20025;-63
2023/05/15 04:25:19;;;;;;;0.20;0.20;;;;;;;15.66;49.36;100446.22;5067576;28;20021;-63
2023/05/15 04:27:45;;;;;;;0.65;0.65;;;;;;;15.59;50.79;100453.44;5073546;22;20067;-73
2023/05/15 04:30:11;;;;;;;0.55;0.55;;;;;;;15.91;51.75;100456.84;5066772;28;20028;-74
2023/05/15 04:32:38;;;;;;;0.30;0.30;;;;;;;16.67;51.45;100458.91;5084076;22;20135;-63
2023/05/15 04:35:08;;;;;;;0.30;0.30;;;;;;;17.07;49.98;100450.56;5100100;23;20076;-66
2023/05/15 04:37:34;;;;;;;0.25;0.25;;;;;;;17.23;48.97;100453.53;5125848;28;20519;-65
2023/05/15 04:40:00;;;;;;;0.20;0.20;;;;;;;17.38;47.43;100453.91;5127232;28;20089;-66
2023/05/15 04:42:25;;;;;;;0.22;0.22;;;;;;;17.40;46.72;100449.44;5127567;28;20459;-66
2023/05/15 04:44:52;;;;;;;0.30;0.30;;;;;;;17.36;46.95;100453.97;5114257;22;20038;-63
2023/05/15 04:47:17;;;;;;;0.32;0.32;;;;;;;17.37;46.58;100447.78;5127650;28;20020;-63
2023/05/15 04:49:43;;;;;;;0.20;0.20;;;;;;;17.39;46.68;100448.59;5132666;22;20063;-73
2023/05/15 04:52:08;;;;;;;0.20;0.20;;;;;;;17.49;47.16;100432.50;5093239;22;1135330;-63
2023/05/15 04:54:33;;;;;;;0.20;0.20;;;;;;;17.68;46.63;100438.78;5127332;28;20042;-63
2023/05/15 04:56:59;;;;;;;0.30;0.30;;;;;;;17.75;46.23;100434.16;5138034;22;20051;-63
2023/05/15 04:59:26;;;;;;;0.30;0.30;;;;;;;17.81;45.79;100433.06;5127785;28;20036;-62
2023/05/15 05:01:51;;;;;;;0.20;0.20;;;;;;;17.79;44.94;100427.88;5126907;28;20025;-62
2023/05/15 05:04:20;;;;;;;0.28;0.28;;;;;;;17.81;45.26;100427.81;5133161;22;20107;-72
2023/05/15 05:06:46;;;;;;;0.57;0.57;;;;;;;17.86;45.00;100410.09;5127713;28;20043;-74
2023/05/15 05:09:11;;;;;;;0.30;0.30;;;;;;;17.84;44.58;100418.03;5127427;28;20045;-72
2023/05/15 05:11:43;;;;;;;0.28;0.28;;;;;;;17.88;44.68;100418.78;5108948;28;20019;-72
2023/05/15 05:14:12;;;;;;;;;;;;;;;18.14;44.98;100419.56;5126587;22;20564;-64
2023/05/15 05:16:38;;;;;;;0.30;0.30;;;;;;;18.37;44.24;100427.44;5127127;28;20503;-63
2023/05/15 05:19:04;;;;;;;0.30;0.30;;;;;;;18.15;43.23;100420.41;5132321;22;20044;-69
2023/05/15 05:21:30;;;;;;;0.20;0.20;;;;;;;17.64;43.50;100424.06;5127251;28;20016;-65
2023/05/15 05:23:56;;;;;;;0.20;0.20;;;;;;;17.37;43.88;100429.41;5108673;28;20072;-65
2023/05/15 05:26:21;;;;;;;0.50;0.50;;;;;;;17.15;43.47;100413.59;5127164;28;20028;-65
2023/05/15 05:28:47;;;;;;;0.30;0.30;;;;;;;16.85;44.00;100419.84;5098809;22;20139;-63
2023/05/15 05:31:13;;;;;;;0.20;0.20;;;;;;;16.56;44.08;100430.44;5086131;28;20101;-64
2023/05/15 05:33:38;;;;;;;0.30;0.30;;;;;;;16.40;44.69;100416.97;5086371;28;20464;-61
2023/05/15 05:36:04;;;;;;;0.30;0.30;;;;;;;16.25;45.02;100406.97;5101680;22;20043;-71
2023/05/15 05:38:30;;;;;;;0.30;0.30;;;;;;;16.24;45.51;100416.59;5132153;22;20039;-63
2023/05/15 05:40:55;;;;;;;0.20;0.20;;;;;;;16.56;45.30;100413.84;5126782;28;20024;-64
2023/05/15 05:43:21;;;;;;;0.30;0.30;;;;;;;16.75;45.25;100413.19;5130725;22;20514;-72
2023/05/15 05:45:46;;;;;;;0.30;0.30;;;;;;;17.06;45.54;100404.28;5126266;28;20016;-71
2023/05/15 05:48:12;;;;;;;0.20;0.20;;;;;;;17.45;44.93;100395.88;5131334;22;20048;-61
2023/05/15 05:50:38;;;;;;;0.30;0.30;;;;;;;17.84;44.22;100401.44;5108146;28;20446;-62
2023/05/15 05:53:03;;;;;;;0.32;0.32;;;;;;;18.25;43.00;100403.34;5126375;28;20019;-61
2023/05/15 05:55:29;;;;;;;4.13;1.45;;;;;;;18.21;42.66;100400.00;5126451;28;20100;-62
2023/05/15 05:57:54;;;;;;;0.90;0.65;;;;;;;18.18;42.52;100386.13;5126244;28;20378;-62
2023/05/15 06:00:20;;;;;;;0.30;0.30;;;;;;;18.35;41.90;100389.84;5126153;28;20022;-61
2023/05/15 06:02:45;;;;;;;0.20;0.20;;;;;;;18.34;42.44;100383.72;5126783;28;20020;-62
2023/05/15 06:05:11;;;;;;;0.20;0.20;;;;;;;18.63;43.09;100394.78;5126681;28;20535;-62
2023/05/15 06:07:36;;;;;;;0.40;0.40;;;;;;;19.23;43.30;100387.00;5141048;22;20052;-63
2023/05/15 06:10:02;;;;;;;0.20;0.20;;;;;;;19.89;42.43;100382.22;5131601;22;20055;-72
2023/05/15 06:12:28;;;;;;;0.30;0.30;;;;;;;20.43;40.57;100389.31;5107166;28;20031;-72
2023/05/15 06:14:53;;;;;;;0.50;0.50;;;;;;;20.54;40.70;100371.13;5126370;28;20039;-72
2023/05/15 06:17:18;;;;;;;0.20;0.20;;;;;;;20.93;39.87;100378.88;5126211;28;20497;-72
2023/05/15 06:19:44;;;;;;;0.30;0.30;;;;;;;21.16;39.09;100374.16;5125451;28;20043;-72
2023/05/15 06:22:10;;;;;;;1.23;1.23;;;;;;;21.42;40.07;100356.06;5125744;28;20027;-72
2023/05/15 06:24:35;;;;;;;0.20;0.20;;;;;;;22.07;39.63;100362.16;5126038;28;20050;-72
2023/05/15 06:27:00;;;;;;;0.20;0.20;;;;;;;22.65;38.10;100367.63;5126271;28;20019;-72
2023/05/15 06:29:26;;;;;;;0.15;0.15;;;;;;;22.74;37.33;100360.94;5126303;28;20019;-70
2023/05/15 06:31:52;;;;;;;0.20;0.20;;;;;;;22.75;37.05;100372.34;5125904;28;20028;-72
2023/05/15 06:34:17;;;;;;;0.20;0.20;;;;;;;22.60;36.84;100361.78;5126050;28;20028;-72
2023/05/15 06:36:42;;;;;;;0.20;0.20;;;;;;;22.54;36.65;100362.94;5107367;28;20027;-73
2023/05/15 06:39:09;;;;;;;0.10;0.10;;;;;;;22.56;36.56;100362.84;5126093;28;20023;-71
2023/05/15 06:41:36;;;;;;;0.20;0.20;;;;;;;22.72;36.16;100354.03;5133682;22;20048;-64
2023/05/15 06:44:01;;;;;;;4.95;1.17;;;;;;;22.70;35.17;100354.09;5125934;28;20015;-63
2023/05/15 06:46:26;;;;;;;0.20;0.20;;;;;;;22.47;34.96;100353.69;5125760;28;20143;-64
2023/05/15 06:48:52;;;;;;;0.28;0.28;;;;;;;22.27;35.07;100347.78;5135228;22;20055;-73
2023/05/15 06:51:17;;;;;;;0.30;0.30;;;;;;;22.37;35.26;100344.59;5107172;28;20031;-72
2023/05/15 06:53:42;;;;;;;0.73;0.73;;;;;;;22.83;35.28;100348.09;5132736;22;20098;-63
2023/05/15 06:56:08;;;;;;;0.10;0.10;;;;;;;23.19;34.40;100336.16;5098896;22;20076;-72
2023/05/15 06:58:33;;;;;;;0.20;0.20;;;;;;;23.23;34.59;100340.28;5127330;22;20054;-63
2023/05/15 07:01:02;;;;;;;1.17;1.10;;;;;;;22.94;33.85;100339.50;5125711;28;20023;-63
2023/05/15 07:03:28;;;;;;;0.52;0.52;;;;;;;22.49;34.08;100335.09;5107516;28;20027;-64
2023/05/15 07:05:53;;;;;;;0.20;0.20;;;;;;;22.16;34.66;100335.19;5125790;28;20040;-64
2023/05/15 07:08:19;;;;;;;0.20;0.20;;;;;;;22.08;35.00;100326.84;5125903;28;20616;-65
2023/05/15 07:10:44;;;;;;;0.20;0.20;;;;;;;22.14;35.03;100333.59;5125622;28;20023;-63
2023/05/15 07:13:10;;;;;;;0.20;0.20;;;;;;;21.92;34.39;100316.31;5128875;22;20128;-63
2023/05/15 07:15:35;;;;;;;0.20;0.20;;;;;;;21.90;34.31;100326.97;5125226;28;20024;-63
2023/05/15 07:18:01;;;;;;;0.45;0.45;;;;;;;21.55;33.59;100328.03;5125659;28;20044;-64
2023/05/15 07:20:26;;;;;;;0.22;0.22;;;;;;;21.09;34.72;100325.28;5130251;22;20051;-72
2023/05/15 07:22:51;;;;;;;0.40;0.40;;;;;;;20.92;34.53;100316.50;5125548;28;20019;-73
2023/05/15 07:25:17;;;;;;;0.20;0.20;;;;;;;20.84;35.10;100329.19;5127529;28;20103;-73
2023/05/15 07:27:42;;;;;;;0.20;0.20;;;;;;;20.74;34.94;100324.41;5129378;28;20542;-72
2023/05/15 07:30:08;;;;;;;1.05;1.02;;;;;;;20.60;35.23;100313.72;5129355;28;20027;-71
2023/05/15 07:32:34;;;;;;;0.20;0.20;;;;;;;20.61;35.37;100318.06;5126416;22;20084;-64
2023/05/15 07:35:00;;;;;;;0.20;0.20;;;;;;;20.88;36.07;100325.50;5134597;22;20531;-72
2023/05/15 07:37:25;;;;;;;0.30;0.30;;;;;;;21.25;35.37;100317.38;5129219;28;20092;-72
2023/05/15 07:39:50;;;;;;;0.80;0.80;;;;;;;21.80;35.64;100315.25;5129359;28;20079;-72
2023/05/15 07:42:16;;;;;;;0.20;0.20;;;;;;;22.22;35.14;100312.81;5129315;28;20024;-73
2023/05/15 07:44:41;;;;;;;0.63;0.63;;;;;;;22.63;33.78;100308.69;5129268;28;20035;-72
2023/05/15 07:47:07;;;;;;;0.10;0.10;;;;;;;22.94;33.73;100313.84;5134863;22;20169;-63
2023/05/15 07:49:32;;;;;;;0.40;0.40;;;;;;;23.58;34.15;100311.69;5129137;28;20030;-63
2023/05/15 07:51:58;;;;;;;0.20;0.20;;;;;;;24.41;32.54;100306.28;5134180;22;20044;-67
2023/05/15 07:54:23;;;;;;;0.20;0.20;;;;;;;25.35;30.09;100311.25;5110539;28;20076;-65
2023/05/15 07:56:49;;;;;;;0.80;0.80;;;;;;;26.30;28.69;100303.41;5111708;22;20079;-63
2023/05/15 07:59:14;;;;;;;0.20;0.20;;;;;;;26.43;28.41;100306.84;5088282;28;20040;-63
2023/05/15 08:01:40;;;;;;;0.30;0.30;;;;;;;26.42;24.78;100306.97;5060460;22;20052;-72
2023/05/15 08:04:07;;;;;;;0.43;0.43;;;;;;;25.68;26.05;100311.56;5068052;28;20032;-73
2023/05/15 08:09:06;;;;;;;0.30;0.30;;;;;;;25.88;26.47;100285.31;5105784;28;20044;-62
2023/05/15 08:11:31;;;;;;;0.10;0.10;;;;;;;26.53;26.71;100299.00;5108471;28;20012;-62
2023/05/15 08:13:57;;;;;;;0.10;0.10;;;;;;;26.87;26.53;100294.66;5135016;22;20051;-64
2023/05/15 08:16:22;;;;;;;0.20;0.20;;;;;;;27.54;26.66;100294.66;5126800;28;20020;-64
2023/05/15 08:18:51;;;;;;;0.10;0.10;;;;;;;28.15;23.96;100300.34;5132550;22;20077;-73
2023/05/15 08:21:17;;;;;;;0.98;0.90;;;;;;;28.57;22.08;100299.44;5145838;22;20050;-64
2023/05/15 08:23:42;;;;;;;0.35;0.35;;;;;;;27.76;22.61;100290.22;5132245;22;20023;-72
2023/05/15 08:26:07;;;;;;;0.20;0.20;;;;;;;27.51;23.44;100282.41;5134022;22;20042;-63
2023/05/15 08:28:33;;;;;;;0.25;0.25;;;;;;;27.60;22.42;100275.47;5133470;22;20048;-72
2023/05/15 08:30:58;;;;;;;0.77;0.77;;;;;;;27.13;24.06;100278.41;5128085;28;20380;-71
2023/05/15 08:33:24;;;;;;;0.20;0.20;;;;;;;27.53;24.00;100287.59;5127614;22;20090;-64
2023/05/15 08:35:50;;;;;;;0.43;0.43;;;;;;;27.62;23.72;100284.19;5127371;28;20064;-63
2023/05/15 08:38:15;;;;;;;0.30;0.30;;;;;;;27.85;23.16;100278.78;5128165;28;20493;-63
2023/05/15 08:40:46;;;;;;;0.30;0.30;;;;;;;27.69;22.89;100272.06;5128380;28;20087;-65
2023/05/15 08:43:14;;;;;;;0.50;0.50;;;;;;;27.83;23.72;100280.72;5128554;28;20019;-64
2023/05/15 08:45:40;;;;;;;0.10;0.10;;;;;;;28.28;22.97;100274.28;5127745;28;20072;-64
2023/05/15 08:48:26;;;;;;;0.43;0.43;;;;;;;28.66;22.19;100266.59;5136008;22;20098;-66
2023/05/15 08:50:52;;;;;;;0.20;0.20;;;;;;;28.22;22.18;100266.81;5085848;28;20103;-66
2023/05/15 08:53:19;;;;;;;0.10;0.10;;;;;;;27.89;22.79;100280.22;5087228;28;20029;-64
2023/05/15 08:55:44;;;;;;;0.15;0.15;;;;;;;27.57;22.49;100267.75;5087114;28;20051;-67
2023/05/15 08:58:11;;;;;;;0.10;0.10;;;;;;;27.35;23.32;100267.69;5102526;22;20055;-64
2023/05/15 09:00:36;;;;;;;0.10;0.10;;;;;;;27.32;23.42;100269.75;5127714;28;20020;-64
2023/05/15 09:03:02;;;;;;;1.23;0.95;;;;;;;27.56;23.76;100244.69;5148949;22;20047;-73
2023/05/15 09:05:28;;;;;;;0.10;0.10;;;;;;;28.47;22.29;100264.69;5117276;22;20079;-64
2023/05/15 09:07:55;;;;;;;0.10;0.10;;;;;;;28.78;21.47;100263.81;5107484;28;20062;-65
2023/05/15 09:10:21;;;;;;;0.10;0.10;;;;;;;28.74;22.10;100257.91;5088939;28;20165;-64
2023/05/15 09:12:50;;;;;;;0.20;0.20;;;;;;;29.00;22.05;100256.59;5107151;28;20032;-64
2023/05/15 09:15:20;;;;;;;0.40;0.40;;;;;;;29.62;21.96;100259.06;5107158;28;20058;-63
2023/05/15 09:17:47;;;;;;;0.10;0.10;;;;;;;30.22;21.55;100259.84;5106948;28;20035;-63
2023/05/15 09:20:30;;;;;;;1.88;1.77;;;;;;;31.16;21.94;100251.78;5107340;28;20024;-64
2023/05/15 09:23:01;;;;;;;0.10;0.10;;;;;;;31.94;21.39;100267.34;5110787;22;20125;-64
2023/05/15 09:25:33;;;;;;;0.10;0.10;;;;;;;32.49;20.43;100259.13;5127678;28;20020;-64
2023/05/15 09:27:59;;;;;;;0.10;0.10;;;;;;;32.88;20.29;100247.88;5127184;28;20034;-64
2023/05/15 09:32:55;;;;;;;0.10;0.10;;;;;;;32.72;18.65;100259.41;5084681;28;20489;-73
2023/05/15 09:35:32;;;;;;;0.10;0.10;;;;;;;32.53;19.37;100252.47;5068255;28;20025;-73
2023/05/15 09:37:59;;;;;;;0.10;0.10;;;;;;;32.11;19.89;100260.28;5107054;22;20055;-65
2023/05/15 09:40:27;;;;;;;0.15;0.15;;;;;;;31.97;19.89;100245.59;5111631;22;20035;-64
2023/05/15 09:42:53;;;;;;;0.70;0.40;;;;;;;32.21;20.29;100248.56;5077807;23;20048;-73
2023/05/15 09:45:19;;;;;;;0.63;0.63;;;;;;;32.73;19.90;100238.78;5107718;28;20027;-73
2023/05/15 09:47:45;;;;;;;0.45;0.45;;;;;;;32.94;19.41;100241.00;5131442;22;20052;-63
2023/05/15 09:50:11;;;;;;;0.10;0.10;;;;;;;32.76;19.12;100243.81;5126926;28;20031;-63
2023/05/15 09:52:37;;;;;;;0.15;0.15;;;;;;;32.63;18.50;100238.91;5126834;28;20023;-64
2023/05/15 09:55:03;;;;;;;0.10;0.10;;;;;;;32.27;18.38;100235.34;5126629;28;20024;-64
2023/05/15 09:57:29;;;;;;;1.15;0.75;;;;;;;32.01;18.53;100238.09;5136893;22;20056;-64
2023/05/15 09:59:54;;;;;;;0.10;0.10;;;;;;;31.97;19.15;100247.44;5126704;28;20076;-63
2023/05/15 10:02:30;;;;;;;0.10;0.10;;;;;;;32.00;18.43;100239.06;5108275;28;20381;-64
2023/05/15 10:04:57;;;;;;;0.10;0.10;;;;;;;32.07;18.81;100245.50;5131671;22;20054;-73
2023/05/15 10:07:30;;;;;;;0.10;0.10;;;;;;;32.34;18.21;100249.00;5126501;28;20463;-73
2023/05/15 10:09:56;;;;;;;0.20;0.20;;;;;;;32.61;17.51;100232.84;5126244;28;20049;-72
2023/05/15 10:12:22;;;;;;;0.45;0.40;;;;;;;32.37;18.22;100240.63;5126271;28;20024;-74
2023/05/15 10:14:49;;;;;;;0.10;0.10;;;;;;;31.68;18.64;100235.97;5126451;28;20459;-74
2023/05/15 10:17:16;;;;;;;0.20;0.20;;;;;;;31.78;19.14;100226.00;5126075;28;20023;-73
2023/05/15 10:19:42;;;;;;;0.10;0.10;;;;;;;32.51;18.44;100208.81;5125639;28;20016;-72
2023/05/15 10:22:10;;;;;;;0.20;0.20;;;;;;;33.02;18.09;100216.81;5126053;28;20023;-72
2023/05/15 10:24:40;;;;;;;0.10;0.10;;;;;;;33.12;17.69;100219.38;5126291;28;20028;-71
2023/05/15 10:27:08;;;;;;;0.10;0.10;;;;;;;33.29;17.96;100214.03;5107858;28;20022;-72
2023/05/15 10:29:34;;;;;;;8.75;1.20;;;;;;;33.58;17.59;100209.13;5125604;28;20019;-73
2023/05/15 10:32:00;;;;;;;0.10;0.10;;;;;;;33.18;17.71;100209.78;5124427;28;20026;-73
2023/05/15 10:34:27;;;;;;;0.10;0.10;;;;;;;31.85;17.97;100199.38;5125893;28;20028;-72
2023/05/15 10:36:53;;;;;;;0.10;0.10;;;;;;;30.30;17.87;100205.56;5125901;28;20027;-73
2023/05/15 10:39:20;;;;;;;0.10;0.10;;;;;;;28.97;19.42;100196.28;5125602;28;20027;-72
2023/05/15 10:41:46;;;;;;;0.40;0.40;;;;;;;28.33;20.56;100185.81;5125379;28;20027;-72
2023/05/15 10:44:13;;;;;;;0.35;0.35;;;;;;;27.95;21.14;100194.34;5116152;22;20123;-63
2023/05/15 10:46:39;;;;;;;0.10;0.10;;;;;;;27.87;21.77;100196.81;5125562;28;20066;-63
2023/05/15 10:51:32;;;;;;;0.10;0.10;;;;;;;27.39;21.80;100193.66;5123018;22;20055;-63
2023/05/15 10:53:59;;;;;;;0.20;0.20;;;;;;;27.45;22.42;100186.97;5087354;28;20547;-64
2023/05/15 10:56:36;;;;;;;0.55;0.55;;;;;;;27.31;22.03;100194.31;5105309;28;20032;-64
2023/05/15 10:59:07;;;;;;;0.10;0.10;;;;;;;26.84;22.75;100200.72;5104797;28;20027;-63
2023/05/15 11:01:37;;;;;;;0.50;0.50;;;;;;;26.49;23.12;100196.41;5105058;28;20020;-64
2023/05/15 11:04:21;;;;;;;0.10;0.10;;;;;;;26.08;23.57;100188.03;5114340;22;20047;-64
2023/05/15 11:06:48;;;;;;;0.22;0.22;;;;;;;25.78;23.87;100197.41;5126267;28;20048;-64
2023/05/15 11:11:52;;;;;;;0.10;0.10;;;;;;;25.46;24.43;100189.06;5132948;22;20080;-72
2023/05/15 11:14:21;;;;;;;0.10;0.10;;;;;;;25.52;24.41;100176.28;5064020;28;20048;-73
2023/05/15 11:16:53;;;;;;;0.10;0.10;;;;;;;25.82;24.43;100167.81;5064403;28;20029;-73
2023/05/15 11:19:27;;;;;;;0.20;0.20;;;;;;;25.85;23.86;100167.56;5064743;28;20055;-72
2023/05/15 11:21:59;;;;;;;0.10;0.10;;;;;;;25.56;24.01;100162.63;5064740;28;20025;-72
2023/05/15 11:24:31;;;;;;;0.10;0.10;;;;;;;25.34;24.42;100152.78;5064720;28;20059;-73
2023/05/15 11:27:01;;;;;;;0.20;0.20;;;;;;;25.31;24.56;100155.69;5133952;22;20063;-72
2023/05/15 11:29:26;;;;;;;0.30;0.30;;;;;;;25.12;24.67;100144.66;5064245;28;20402;-73
2023/05/15 11:31:52;;;;;;;0.95;0.75;;;;;;;24.87;24.99;100141.09;5064458;28;20029;-71
2023/05/15 11:34:40;;;;;;;0.20;0.20;;;;;;;24.78;25.50;100135.63;5064685;28;20060;-74
2023/05/15 11:37:16;;;;;;;0.10;0.10;;;;;;;24.55;25.75;100131.03;5064400;28;20017;-73
2023/05/15 11:39:43;;;;;;;0.22;0.22;;;;;;;24.38;25.80;100137.53;5064633;28;20033;-72